sensor_id;sensor_type;location;lat;lon;timestamp;pressure;altitude;pressure_sealevel;temperature;humidity
44839;BME280;30576;42.098;24.876;2023-10-19T00:02:05;99990.94;;;10.63;71.79
44839;BME280;30576;42.098;24.876;2023-10-19T00:04:30;99989.09;;;10.68;71.33
44839;BME280;30576;42.098;24.876;2023-10-19T00:07:00;99986.44;;;10.71;70.85
44839;BME280;30576;42.098;24.876;2023-10-19T00:09:26;99989.19;;;10.61;70.64
44839;BME280;30576;42.098;24.876;2023-10-19T00:11:56;99979.59;;;10.53;71.37
44839;BME280;30576;42.098;24.876;2023-10-19T00:14:22;99978.78;;;10.47;71.13
44839;BME280;30576;42.098;24.876;2023-10-19T00:16:51;99976.16;;;10.44;71.30
44839;BME280;30576;42.098;24.876;2023-10-19T00:19:19;99977.16;;;10.33;72.10
44839;BME280;30576;42.098;24.876;2023-10-19T00:21:46;99972.75;;;10.31;71.95
44839;BME280;30576;42.098;24.876;2023-10-19T00:24:26;99963.09;;;10.30;72.27
44839;BME280;30576;42.098;24.876;2023-10-19T00:26:52;99964.91;;;10.23;72.18
44839;BME280;30576;42.098;24.876;2023-10-19T00:29:18;99960.84;;;9.83;73.97
44839;BME280;30576;42.098;24.876;2023-10-19T00:32:04;99958.25;;;9.79;74.32
44839;BME280;30576;42.098;24.876;2023-10-19T00:34:31;99951.19;;;9.87;74.00
44839;BME280;30576;42.098;24.876;2023-10-19T00:36:58;99949.38;;;9.91;73.93
44839;BME280;30576;42.098;24.876;2023-10-19T00:39:32;99950.22;;;9.93;73.36
44839;BME280;30576;42.098;24.876;2023-10-19T00:42:07;99940.69;;;9.82;72.95
44839;BME280;30576;42.098;24.876;2023-10-19T00:44:33;99941.56;;;9.80;73.16
44839;BME280;30576;42.098;24.876;2023-10-19T00:47:07;99947.81;;;9.65;73.54
44839;BME280;30576;42.098;24.876;2023-10-19T00:49:38;99942.66;;;9.49;74.28
44839;BME280;30576;42.098;24.876;2023-10-19T00:52:03;99940.88;;;9.55;74.17
44839;BME280;30576;42.098;24.876;2023-10-19T00:54:40;99933.72;;;9.72;73.80
44839;BME280;30576;42.098;24.876;2023-10-19T00:57:17;99929.31;;;9.73;73.60
44839;BME280;30576;42.098;24.876;2023-10-19T00:59:46;99931.94;;;9.74;73.74
44839;BME280;30576;42.098;24.876;2023-10-19T01:02:17;99926.59;;;9.83;73.06
44839;BME280;30576;42.098;24.876;2023-10-19T01:04:50;99936.25;;;9.86;73.39
44839;BME280;30576;42.098;24.876;2023-10-19T01:07:16;99934.50;;;9.82;73.48
44839;BME280;30576;42.098;24.876;2023-10-19T01:10:02;99920.47;;;9.81;73.48
44839;BME280;30576;42.098;24.876;2023-10-19T01:12:31;99924.91;;;9.78;73.83
44839;BME280;30576;42.098;24.876;2023-10-19T01:15:03;99918.69;;;9.85;73.11
44839;BME280;30576;42.098;24.876;2023-10-19T01:17:35;99917.97;;;9.63;73.30
44839;BME280;30576;42.098;24.876;2023-10-19T01:20:13;99910.97;;;9.59;73.15
44839;BME280;30576;42.098;24.876;2023-10-19T01:28:09;99918.09;;;9.47;72.76
44839;BME280;30576;42.098;24.876;2023-10-19T01:30:38;99912.13;;;9.24;72.99
44839;BME280;30576;42.098;24.876;2023-10-19T01:33:03;99903.38;;;9.12;73.79
44839;BME280;30576;42.098;24.876;2023-10-19T01:35:29;99887.66;;;8.99;75.29
44839;BME280;30576;42.098;24.876;2023-10-19T01:38:14;99907.00;;;8.98;75.66
44839;BME280;30576;42.098;24.876;2023-10-19T01:40:40;99914.81;;;9.10;75.76
44839;BME280;30576;42.098;24.876;2023-10-19T01:43:11;99910.38;;;9.21;75.49
44839;BME280;30576;42.098;24.876;2023-10-19T01:45:45;99906.81;;;9.30;74.94
44839;BME280;30576;42.098;24.876;2023-10-19T01:48:10;99912.88;;;9.38;74.72
44839;BME280;30576;42.098;24.876;2023-10-19T01:50:38;99912.88;;;9.40;74.94
44839;BME280;30576;42.098;24.876;2023-10-19T01:53:04;99909.38;;;9.42;74.40
44839;BME280;30576;42.098;24.876;2023-10-19T01:55:38;99911.09;;;9.42;75.07
44839;BME280;30576;42.098;24.876;2023-10-19T01:58:03;99909.34;;;9.45;74.56
44839;BME280;30576;42.098;24.876;2023-10-19T02:00:29;99907.44;;;9.63;73.95
44839;BME280;30576;42.098;24.876;2023-10-19T02:02:54;99904.00;;;9.55;74.00
44839;BME280;30576;42.098;24.876;2023-10-19T02:05:20;99901.38;;;9.55;74.17
44839;BME280;30576;42.098;24.876;2023-10-19T02:07:47;99912.81;;;9.49;74.14
44839;BME280;30576;42.098;24.876;2023-10-19T02:10:12;99917.25;;;9.45;74.47
44839;BME280;30576;42.098;24.876;2023-10-19T02:12:37;99914.63;;;9.42;74.44
44839;BME280;30576;42.098;24.876;2023-10-19T02:15:07;99908.47;;;9.42;73.49
44839;BME280;30576;42.098;24.876;2023-10-19T02:17:33;99914.81;;;9.14;73.83
44839;BME280;30576;42.098;24.876;2023-10-19T02:19:59;99917.44;;;9.16;74.25
44839;BME280;30576;42.098;24.876;2023-10-19T02:22:24;99914.78;;;9.18;73.97
44839;BME280;30576;42.098;24.876;2023-10-19T02:24:49;99907.78;;;9.13;74.29
44839;BME280;30576;42.098;24.876;2023-10-19T02:27:17;99909.56;;;9.11;75.32
44839;BME280;30576;42.098;24.876;2023-10-19T02:29:43;99912.16;;;9.14;75.02
44839;BME280;30576;42.098;24.876;2023-10-19T02:32:08;99916.44;;;9.31;74.72
44839;BME280;30576;42.098;24.876;2023-10-19T02:34:35;99914.78;;;9.19;75.59
44839;BME280;30576;42.098;24.876;2023-10-19T02:37:00;99917.31;;;9.36;75.39
44839;BME280;30576;42.098;24.876;2023-10-19T02:39:26;99916.41;;;9.34;76.03
44839;BME280;30576;42.098;24.876;2023-10-19T02:41:54;99911.16;;;9.31;76.53
44839;BME280;30576;42.098;24.876;2023-10-19T02:44:20;99913.66;;;9.51;75.42
44839;BME280;30576;42.098;24.876;2023-10-19T02:46:53;99909.25;;;9.56;75.51
44839;BME280;30576;42.098;24.876;2023-10-19T02:49:23;99912.75;;;9.60;75.26
44839;BME280;30576;42.098;24.876;2023-10-19T02:51:51;99920.63;;;9.61;75.57
44839;BME280;30576;42.098;24.876;2023-10-19T02:54:18;99908.34;;;9.57;76.34
44839;BME280;30576;42.098;24.876;2023-10-19T02:56:48;99920.69;;;9.52;76.62
44839;BME280;30576;42.098;24.876;2023-10-19T02:59:18;99915.41;;;9.54;76.44
44839;BME280;30576;42.098;24.876;2023-10-19T03:01:50;99921.50;;;9.62;76.81
44839;BME280;30576;42.098;24.876;2023-10-19T03:04:15;99918.88;;;9.60;76.72
44839;BME280;30576;42.098;24.876;2023-10-19T03:06:41;99922.38;;;9.62;76.40
44839;BME280;30576;42.098;24.876;2023-10-19T03:09:07;99915.38;;;9.60;76.52
44839;BME280;30576;42.098;24.876;2023-10-19T03:11:41;99925.88;;;9.63;76.92
44839;BME280;30576;42.098;24.876;2023-10-19T03:14:10;99926.91;;;9.42;73.40
44839;BME280;30576;42.098;24.876;2023-10-19T03:16:37;99919.16;;;9.14;73.91
44839;BME280;30576;42.098;24.876;2023-10-19T03:19:02;99926.22;;;9.07;73.65
44839;BME280;30576;42.098;24.876;2023-10-19T03:21:29;99927.97;;;9.11;74.30
44839;BME280;30576;42.098;24.876;2023-10-19T03:23:58;99931.44;;;9.17;73.40
44839;BME280;30576;42.098;24.876;2023-10-19T03:26:27;99934.13;;;9.06;74.05
44839;BME280;30576;42.098;24.876;2023-10-19T03:29:01;99934.13;;;9.04;73.92
44839;BME280;30576;42.098;24.876;2023-10-19T03:31:32;99935.00;;;9.08;73.32
44839;BME280;30576;42.098;24.876;2023-10-19T03:33:58;99935.97;;;8.90;74.06
44839;BME280;30576;42.098;24.876;2023-10-19T03:36:24;99930.63;;;9.05;74.48
44839;BME280;30576;42.098;24.876;2023-10-19T03:38:50;99932.19;;;9.36;73.51
44839;BME280;30576;42.098;24.876;2023-10-19T03:41:17;99934.00;;;9.32;73.85
44839;BME280;30576;42.098;24.876;2023-10-19T03:43:49;99930.44;;;9.39;73.96
44839;BME280;30576;42.098;24.876;2023-10-19T03:46:16;99928.69;;;9.38;73.72
44839;BME280;30576;42.098;24.876;2023-10-19T03:48:49;99924.22;;;9.46;74.61
44839;BME280;30576;42.098;24.876;2023-10-19T03:51:14;99926.84;;;9.48;74.70
44839;BME280;30576;42.098;24.876;2023-10-19T03:53:40;99918.94;;;9.51;75.18
44839;BME280;30576;42.098;24.876;2023-10-19T03:56:11;99926.75;;;9.63;75.11
44839;BME280;30576;42.098;24.876;2023-10-19T03:58:37;99922.38;;;9.64;75.84
44839;BME280;30576;42.098;24.876;2023-10-19T04:01:05;99922.31;;;9.70;75.72
44839;BME280;30576;42.098;24.876;2023-10-19T04:03:30;99922.38;;;9.65;76.65
44839;BME280;30576;42.098;24.876;2023-10-19T04:05:56;99919.56;;;9.85;76.68
44839;BME280;30576;42.098;24.876;2023-10-19T04:08:21;99907.97;;;10.02;76.33
44839;BME280;30576;42.098;24.876;2023-10-19T04:10:51;99919.41;;;10.06;76.71
44839;BME280;30576;42.098;24.876;2023-10-19T04:13:42;99912.38;;;10.03;77.28
44839;BME280;30576;42.098;24.876;2023-10-19T04:16:07;99918.53;;;10.02;78.09
44839;BME280;30576;42.098;24.876;2023-10-19T04:18:35;99912.28;;;10.14;77.86
44839;BME280;30576;42.098;24.876;2023-10-19T04:21:03;99910.44;;;10.20;78.26
44839;BME280;30576;42.098;24.876;2023-10-19T04:23:28;99906.06;;;10.23;78.61
44839;BME280;30576;42.098;24.876;2023-10-19T04:25:54;99913.00;;;10.33;78.58
44839;BME280;30576;42.098;24.876;2023-10-19T04:28:21;99913.84;;;10.38;78.80
44839;BME280;30576;42.098;24.876;2023-10-19T04:30:55;99910.28;;;10.39;78.92
44839;BME280;30576;42.098;24.876;2023-10-19T04:33:21;99905.94;;;10.36;79.04
44839;BME280;30576;42.098;24.876;2023-10-19T04:35:47;99914.63;;;10.45;79.12
44839;BME280;30576;42.098;24.876;2023-10-19T04:38:20;99909.25;;;10.54;79.22
44839;BME280;30576;42.098;24.876;2023-10-19T04:40:46;99899.47;;;10.64;79.09
44839;BME280;30576;42.098;24.876;2023-10-19T04:43:11;99906.38;;;10.74;78.87
44839;BME280;30576;42.098;24.876;2023-10-19T04:45:39;99905.53;;;10.69;79.30
44839;BME280;30576;42.098;24.876;2023-10-19T04:48:04;99909.94;;;10.70;79.21
44839;BME280;30576;42.098;24.876;2023-10-19T04:50:30;99913.41;;;10.72;79.82
44839;BME280;30576;42.098;24.876;2023-10-19T04:52:56;99905.47;;;10.73;79.84
44839;BME280;30576;42.098;24.876;2023-10-19T04:55:21;99916.91;;;10.77;80.00
44839;BME280;30576;42.098;24.876;2023-10-19T04:57:46;99917.78;;;10.76;79.69
44839;BME280;30576;42.098;24.876;2023-10-19T05:00:12;99917.66;;;10.87;79.34
44839;BME280;30576;42.098;24.876;2023-10-19T05:02:38;99919.50;;;10.80;79.18
44839;BME280;30576;42.098;24.876;2023-10-19T05:05:04;99919.66;;;10.68;80.28
44839;BME280;30576;42.098;24.876;2023-10-19T05:07:29;99928.25;;;10.82;80.10
44839;BME280;30576;42.098;24.876;2023-10-19T05:09:54;99930.75;;;10.93;79.86
44839;BME280;30576;42.098;24.876;2023-10-19T05:12:19;99925.31;;;11.07;79.08
44839;BME280;30576;42.098;24.876;2023-10-19T05:14:46;99924.56;;;10.97;78.89
44839;BME280;30576;42.098;24.876;2023-10-19T05:17:12;99921.91;;;10.99;79.90
44839;BME280;30576;42.098;24.876;2023-10-19T05:19:38;99925.31;;;11.05;79.12
44839;BME280;30576;42.098;24.876;2023-10-19T05:22:05;99932.41;;;11.02;79.56
44839;BME280;30576;42.098;24.876;2023-10-19T05:24:31;99928.56;;;11.26;79.93
44839;BME280;30576;42.098;24.876;2023-10-19T05:26:57;99935.84;;;11.69;78.12
44839;BME280;30576;42.098;24.876;2023-10-19T05:29:22;99937.00;;;11.53;77.60
44839;BME280;30576;42.098;24.876;2023-10-19T05:31:51;99931.69;;;11.54;77.58
44839;BME280;30576;42.098;24.876;2023-10-19T05:34:21;99933.09;;;11.75;77.44
44839;BME280;30576;42.098;24.876;2023-10-19T05:36:48;99943.44;;;11.92;76.25
44839;BME280;30576;42.098;24.876;2023-10-19T05:39:16;99938.84;;;12.04;75.97
44839;BME280;30576;42.098;24.876;2023-10-19T05:41:42;99908.03;;;12.01;75.07
44839;BME280;30576;42.098;24.876;2023-10-19T05:44:08;99938.53;;;12.22;75.16
44839;BME280;30576;42.098;24.876;2023-10-19T05:46:33;99947.69;;;12.03;74.19
44839;BME280;30576;42.098;24.876;2023-10-19T05:48:58;99939.78;;;12.01;75.02
44839;BME280;30576;42.098;24.876;2023-10-19T05:51:24;99934.94;;;12.25;74.48
44839;BME280;30576;42.098;24.876;2023-10-19T05:53:50;99939.00;;;12.44;74.30
44839;BME280;30576;42.098;24.876;2023-10-19T05:56:16;99935.91;;;12.67;72.90
44839;BME280;30576;42.098;24.876;2023-10-19T05:58:45;99934.16;;;12.66;72.71
44839;BME280;30576;42.098;24.876;2023-10-19T06:01:13;99936.38;;;12.43;73.00
44839;BME280;30576;42.098;24.876;2023-10-19T06:03:39;99937.41;;;12.35;72.87
44839;BME280;30576;42.098;24.876;2023-10-19T06:06:04;99936.38;;;12.44;72.38
44839;BME280;30576;42.098;24.876;2023-10-19T06:08:29;99943.13;;;12.61;72.49
44839;BME280;30576;42.098;24.876;2023-10-19T06:10:56;99937.59;;;12.73;71.65
44839;BME280;30576;42.098;24.876;2023-10-19T06:13:21;99937.59;;;12.73;71.00
44839;BME280;30576;42.098;24.876;2023-10-19T06:15:49;99938.22;;;12.84;71.27
44839;BME280;30576;42.098;24.876;2023-10-19T06:18:15;99937.00;;;13.01;71.07
44839;BME280;30576;42.098;24.876;2023-10-19T06:20:44;99939.38;;;13.15;70.30
44839;BME280;30576;42.098;24.876;2023-10-19T06:23:09;99935.81;;;13.14;70.47
44839;BME280;30576;42.098;24.876;2023-10-19T06:25:37;99926.03;;;13.58;70.21
44839;BME280;30576;42.098;24.876;2023-10-19T06:28:05;99938.72;;;13.46;67.77
44839;BME280;30576;42.098;24.876;2023-10-19T06:30:31;99935.97;;;13.50;68.70
44839;BME280;30576;42.098;24.876;2023-10-19T06:32:57;99938.78;;;13.42;69.73
44839;BME280;30576;42.098;24.876;2023-10-19T06:35:25;99940.00;;;13.26;68.48
44839;BME280;30576;42.098;24.876;2023-10-19T06:37:52;99936.06;;;13.46;68.13
44839;BME280;30576;42.098;24.876;2023-10-19T06:40:18;99944.19;;;13.38;68.34
44839;BME280;30576;42.098;24.876;2023-10-19T06:42:44;99939.50;;;13.08;69.19
44839;BME280;30576;42.098;24.876;2023-10-19T06:45:12;99946.75;;;13.42;68.59
44839;BME280;30576;42.098;24.876;2023-10-19T06:47:44;99938.78;;;13.80;67.82
44839;BME280;30576;42.098;24.876;2023-10-19T06:50:10;99941.31;;;13.85;66.55
44839;BME280;30576;42.098;24.876;2023-10-19T06:52:39;99939.56;;;14.20;66.59
44839;BME280;30576;42.098;24.876;2023-10-19T06:55:05;99939.44;;;14.24;67.04
44839;BME280;30576;42.098;24.876;2023-10-19T06:57:31;99940.88;;;14.36;66.84
44839;BME280;30576;42.098;24.876;2023-10-19T06:59:58;99934.84;;;14.31;66.12
44839;BME280;30576;42.098;24.876;2023-10-19T07:02:23;99933.38;;;14.54;65.84
44839;BME280;30576;42.098;24.876;2023-10-19T07:04:48;99936.63;;;14.65;65.21
44839;BME280;30576;42.098;24.876;2023-10-19T07:07:14;99937.22;;;14.75;65.50
44839;BME280;30576;42.098;24.876;2023-10-19T07:09:39;99945.59;;;14.92;64.48
44839;BME280;30576;42.098;24.876;2023-10-19T07:12:06;99945.53;;;14.62;65.78
44839;BME280;30576;42.098;24.876;2023-10-19T07:14:33;99939.56;;;14.20;67.71
44839;BME280;30576;42.098;24.876;2023-10-19T07:16:58;99954.88;;;14.08;67.14
44839;BME280;30576;42.098;24.876;2023-10-19T07:19:24;99946.41;;;13.94;68.42
44839;BME280;30576;42.098;24.876;2023-10-19T07:21:51;99940.16;;;14.31;68.32
44839;BME280;30576;42.098;24.876;2023-10-19T07:24:25;99944.06;;;14.16;67.65
44839;BME280;30576;42.098;24.876;2023-10-19T07:26:50;99945.91;;;14.14;67.68
44839;BME280;30576;42.098;24.876;2023-10-19T07:29:27;99935.69;;;14.31;68.26
44839;BME280;30576;42.098;24.876;2023-10-19T07:31:52;99940.31;;;14.25;67.69
44839;BME280;30576;42.098;24.876;2023-10-19T07:34:20;99935.81;;;14.27;66.99
44839;BME280;30576;42.098;24.876;2023-10-19T07:36:50;99930.91;;;14.46;67.84
44839;BME280;30576;42.098;24.876;2023-10-19T07:39:16;99932.56;;;14.83;66.75
44839;BME280;30576;42.098;24.876;2023-10-19T07:41:44;99926.28;;;15.17;65.31
44839;BME280;30576;42.098;24.876;2023-10-19T07:44:09;99928.22;;;15.40;64.54
44839;BME280;30576;42.098;24.876;2023-10-19T07:46:34;99924.69;;;15.39;64.06
44839;BME280;30576;42.098;24.876;2023-10-19T07:49:00;99920.84;;;15.76;63.48
44839;BME280;30576;42.098;24.876;2023-10-19T07:51:28;99920.09;;;15.73;64.58
44839;BME280;30576;42.098;24.876;2023-10-19T07:53:53;99923.72;;;15.97;62.29
44839;BME280;30576;42.098;24.876;2023-10-19T07:56:18;99914.59;;;16.31;61.47
44839;BME280;30576;42.098;24.876;2023-10-19T07:58:44;99917.97;;;16.61;60.74
44839;BME280;30576;42.098;24.876;2023-10-19T08:01:09;99920.09;;;16.52;61.53
44839;BME280;30576;42.098;24.876;2023-10-19T08:03:36;99916.16;;;16.62;60.79
44839;BME280;30576;42.098;24.876;2023-10-19T08:06:01;99911.31;;;16.73;60.23
44839;BME280;30576;42.098;24.876;2023-10-19T08:08:27;99908.97;;;16.89;60.00
44839;BME280;30576;42.098;24.876;2023-10-19T08:10:59;99903.97;;;16.80;59.64
44839;BME280;30576;42.098;24.876;2023-10-19T08:13:24;99909.25;;;16.81;58.85
44839;BME280;30576;42.098;24.876;2023-10-19T08:15:51;99904.47;;;16.91;57.39
44839;BME280;30576;42.098;24.876;2023-10-19T08:18:16;99899.50;;;17.28;56.98
44839;BME280;30576;42.098;24.876;2023-10-19T08:20:43;99890.22;;;17.38;55.86
44839;BME280;30576;42.098;24.876;2023-10-19T08:23:24;99892.66;;;17.44;54.96
44839;BME280;30576;42.098;24.876;2023-10-19T08:25:52;99892.06;;;17.36;57.09
44839;BME280;30576;42.098;24.876;2023-10-19T08:28:20;99896.53;;;17.35;56.25
44839;BME280;30576;42.098;24.876;2023-10-19T08:30:47;99894.56;;;16.95;56.61
44839;BME280;30576;42.098;24.876;2023-10-19T08:33:36;99888.06;;;17.26;57.96
44839;BME280;30576;42.098;24.876;2023-10-19T08:36:04;99885.81;;;17.15;57.32
44839;BME280;30576;42.098;24.876;2023-10-19T08:38:29;99886.84;;;17.11;57.20
44839;BME280;30576;42.098;24.876;2023-10-19T08:40:54;99887.28;;;17.22;55.82
44839;BME280;30576;42.098;24.876;2023-10-19T08:43:20;99879.25;;;17.46;56.45
44839;BME280;30576;42.098;24.876;2023-10-19T08:45:46;99875.41;;;17.31;55.87
44839;BME280;30576;42.098;24.876;2023-10-19T08:48:12;99890.06;;;17.19;56.27
44839;BME280;30576;42.098;24.876;2023-10-19T08:50:37;99892.06;;;17.36;55.75
44839;BME280;30576;42.098;24.876;2023-10-19T08:53:05;99881.00;;;17.01;56.69
44839;BME280;30576;42.098;24.876;2023-10-19T08:55:31;99891.56;;;17.26;55.82
44839;BME280;30576;42.098;24.876;2023-10-19T08:57:59;99879.69;;;17.35;56.02
44839;BME280;30576;42.098;24.876;2023-10-19T09:00:25;99874.59;;;17.51;56.01
44839;BME280;30576;42.098;24.876;2023-10-19T09:02:52;99852.88;;;17.16;55.65
44839;BME280;30576;42.098;24.876;2023-10-19T09:05:17;99871.03;;;17.06;56.01
44839;BME280;30576;42.098;24.876;2023-10-19T09:07:50;99868.63;;;17.22;56.28
44839;BME280;30576;42.098;24.876;2023-10-19T09:10:20;99870.25;;;17.26;56.72
44839;BME280;30576;42.098;24.876;2023-10-19T09:12:55;99871.50;;;17.40;56.69
44839;BME280;30576;42.098;24.876;2023-10-19T09:15:23;99867.41;;;17.31;56.10
44839;BME280;30576;42.098;24.876;2023-10-19T09:17:49;99856.25;;;16.97;57.31
44839;BME280;30576;42.098;24.876;2023-10-19T09:20:17;99844.13;;;16.90;58.14
44839;BME280;30576;42.098;24.876;2023-10-19T09:22:52;99829.78;;;17.16;57.93
44839;BME280;30576;42.098;24.876;2023-10-19T09:25:18;99839.88;;;17.30;57.49
44839;BME280;30576;42.098;24.876;2023-10-19T09:27:43;99830.19;;;17.50;56.55
44839;BME280;30576;42.098;24.876;2023-10-19T09:30:09;99832.56;;;17.35;56.93
44839;BME280;30576;42.098;24.876;2023-10-19T09:32:37;99826.22;;;17.60;57.10
44839;BME280;30576;42.098;24.876;2023-10-19T09:35:04;99831.22;;;17.68;57.02
44839;BME280;30576;42.098;24.876;2023-10-19T09:37:30;99829.13;;;17.54;56.96
44839;BME280;30576;42.098;24.876;2023-10-19T09:39:58;99823.13;;;17.49;56.48
44839;BME280;30576;42.098;24.876;2023-10-19T09:42:23;99816.59;;;17.56;56.70
44839;BME280;30576;42.098;24.876;2023-10-19T09:44:52;99808.47;;;17.59;57.10
44839;BME280;30576;42.098;24.876;2023-10-19T09:47:25;99805.13;;;17.75;56.53
44839;BME280;30576;42.098;24.876;2023-10-19T09:49:51;99809.16;;;17.85;56.01
44839;BME280;30576;42.098;24.876;2023-10-19T09:52:17;99799.66;;;18.00;55.28
44839;BME280;30576;42.098;24.876;2023-10-19T09:57:19;99807.72;;;18.38;53.04
44839;BME280;30576;42.098;24.876;2023-10-19T09:59:49;99800.16;;;18.29;54.75
44839;BME280;30576;42.098;24.876;2023-10-19T10:02:16;99790.63;;;18.23;54.31
44839;BME280;30576;42.098;24.876;2023-10-19T10:04:52;99791.47;;;18.23;54.79
44839;BME280;30576;42.098;24.876;2023-10-19T10:07:21;99787.69;;;18.29;54.75
44839;BME280;30576;42.098;24.876;2023-10-19T10:09:47;99782.28;;;18.31;54.02
44839;BME280;30576;42.098;24.876;2023-10-19T10:14:52;99767.47;;;18.42;53.52
44839;BME280;30576;42.098;24.876;2023-10-19T10:17:17;99769.28;;;18.61;52.99
44839;BME280;30576;42.098;24.876;2023-10-19T10:19:44;99764.69;;;18.65;52.09
44839;BME280;30576;42.098;24.876;2023-10-19T10:22:10;99756.66;;;18.65;52.83
44839;BME280;30576;42.098;24.876;2023-10-19T10:24:42;99753.25;;;18.61;53.00
44839;BME280;30576;42.098;24.876;2023-10-19T10:27:08;99757.78;;;18.78;52.19
44839;BME280;30576;42.098;24.876;2023-10-19T10:29:35;99752.47;;;18.59;51.10
44839;BME280;30576;42.098;24.876;2023-10-19T10:32:00;99757.78;;;18.21;51.47
44839;BME280;30576;42.098;24.876;2023-10-19T10:37:08;99755.00;;;18.62;52.03
44839;BME280;30576;42.098;24.876;2023-10-19T10:39:34;99747.25;;;18.75;50.08
44839;BME280;30576;42.098;24.876;2023-10-19T10:42:03;99749.13;;;18.73;50.36
44839;BME280;30576;42.098;24.876;2023-10-19T10:44:46;99749.97;;;18.94;50.61
44839;BME280;30576;42.098;24.876;2023-10-19T10:47:16;99740.22;;;19.10;49.56
44839;BME280;30576;42.098;24.876;2023-10-19T10:49:52;99739.28;;;19.11;50.57
44839;BME280;30576;42.098;24.876;2023-10-19T10:54:57;99733.53;;;19.02;49.41
44839;BME280;30576;42.098;24.876;2023-10-19T10:57:23;99724.19;;;19.10;49.35
44839;BME280;30576;42.098;24.876;2023-10-19T11:03:04;99710.63;;;19.32;48.30
44839;BME280;30576;42.098;24.876;2023-10-19T11:05:34;99707.78;;;19.36;48.55
44839;BME280;30576;42.098;24.876;2023-10-19T11:10:37;99700.03;;;19.64;48.53
44839;BME280;30576;42.098;24.876;2023-10-19T11:13:24;99695.88;;;19.76;48.25
44839;BME280;30576;42.098;24.876;2023-10-19T11:16:04;99696.88;;;19.74;48.39
44839;BME280;30576;42.098;24.876;2023-10-19T11:18:40;99691.22;;;19.97;48.50
44839;BME280;30576;42.098;24.876;2023-10-19T11:21:13;99678.78;;;19.96;48.84
44839;BME280;30576;42.098;24.876;2023-10-19T11:26:12;99676.66;;;19.85;47.25
44839;BME280;30576;42.098;24.876;2023-10-19T11:28:39;99670.16;;;19.56;48.18
44839;BME280;30576;42.098;24.876;2023-10-19T11:34:18;99660.78;;;19.47;48.13
44839;BME280;30576;42.098;24.876;2023-10-19T11:36:47;99664.13;;;19.53;48.21
44839;BME280;30576;42.098;24.876;2023-10-19T11:39:17;99664.03;;;19.37;48.79
44839;BME280;30576;42.098;24.876;2023-10-19T11:41:42;99657.59;;;19.41;48.51
44839;BME280;30576;42.098;24.876;2023-10-19T11:44:08;99648.22;;;19.49;48.09
44839;BME280;30576;42.098;24.876;2023-10-19T11:46:35;99653.56;;;19.49;48.06
44839;BME280;30576;42.098;24.876;2023-10-19T11:49:01;99645.22;;;19.56;47.74
44839;BME280;30576;42.098;24.876;2023-10-19T11:51:28;99635.94;;;19.45;48.02
44839;BME280;30576;42.098;24.876;2023-10-19T11:53:56;99627.38;;;19.72;47.25
44839;BME280;30576;42.098;24.876;2023-10-19T11:56:21;99622.47;;;19.82;47.86
44839;BME280;30576;42.098;24.876;2023-10-19T11:58:50;99622.16;;;19.53;48.05
44839;BME280;30576;42.098;24.876;2023-10-19T12:01:15;99613.53;;;19.48;48.02
44839;BME280;30576;42.098;24.876;2023-10-19T12:03:43;99610.81;;;19.65;48.13
44839;BME280;30576;42.098;24.876;2023-10-19T12:06:11;99603.22;;;19.74;48.02
44839;BME280;30576;42.098;24.876;2023-10-19T12:08:37;99610.97;;;19.62;48.06
44839;BME280;30576;42.098;24.876;2023-10-19T12:11:05;99611.16;;;19.75;47.81
44839;BME280;30576;42.098;24.876;2023-10-19T12:13:40;99613.47;;;19.83;47.69
44839;BME280;30576;42.098;24.876;2023-10-19T12:16:08;99608.47;;;19.93;47.14
44839;BME280;30576;42.098;24.876;2023-10-19T12:18:36;99603.72;;;19.98;47.50
44839;BME280;30576;42.098;24.876;2023-10-19T12:21:01;99595.69;;;19.98;48.35
44839;BME280;30576;42.098;24.876;2023-10-19T12:23:27;99596.94;;;20.08;47.68
44839;BME280;30576;42.098;24.876;2023-10-19T12:25:54;99594.59;;;19.68;47.81
44839;BME280;30576;42.098;24.876;2023-10-19T12:28:20;99585.56;;;19.54;48.61
44839;BME280;30576;42.098;24.876;2023-10-19T12:30:46;99588.16;;;19.55;48.47
44839;BME280;30576;42.098;24.876;2023-10-19T12:33:11;99576.63;;;19.71;48.41
44839;BME280;30576;42.098;24.876;2023-10-19T12:35:37;99582.91;;;19.54;48.52
44839;BME280;30576;42.098;24.876;2023-10-19T12:38:15;99586.88;;;19.46;48.89
44839;BME280;30576;42.098;24.876;2023-10-19T12:40:44;99575.41;;;19.60;48.38
44839;BME280;30576;42.098;24.876;2023-10-19T12:43:11;99571.69;;;19.80;48.26
44839;BME280;30576;42.098;24.876;2023-10-19T12:45:40;99562.81;;;19.96;47.91
44839;BME280;30576;42.098;24.876;2023-10-19T12:48:06;99559.41;;;19.92;48.13
44839;BME280;30576;42.098;24.876;2023-10-19T12:50:36;99551.16;;;20.13;47.95
44839;BME280;30576;42.098;24.876;2023-10-19T12:53:05;99547.84;;;20.08;47.51
44839;BME280;30576;42.098;24.876;2023-10-19T12:55:34;99541.03;;;20.02;48.09
44839;BME280;30576;42.098;24.876;2023-10-19T12:58:02;99545.16;;;20.08;47.22
44839;BME280;30576;42.098;24.876;2023-10-19T13:00:35;99535.16;;;20.11;46.96
44839;BME280;30576;42.098;24.876;2023-10-19T13:03:19;99528.31;;;20.21;47.10
44839;BME280;30576;42.098;24.876;2023-10-19T13:05:51;99522.91;;;19.91;47.77
44839;BME280;30576;42.098;24.876;2023-10-19T13:08:18;99511.66;;;19.84;48.10
44839;BME280;30576;42.098;24.876;2023-10-19T13:10:44;99513.94;;;20.08;47.63
44839;BME280;30576;42.098;24.876;2023-10-19T13:13:10;99515.53;;;20.11;47.11
44839;BME280;30576;42.098;24.876;2023-10-19T13:15:46;99515.91;;;19.89;47.54
44839;BME280;30576;42.098;24.876;2023-10-19T13:18:18;99514.53;;;19.97;47.37
44839;BME280;30576;42.098;24.876;2023-10-19T13:20:47;99515.53;;;20.11;46.91
44839;BME280;30576;42.098;24.876;2023-10-19T13:23:14;99507.59;;;20.09;47.02
44839;BME280;30576;42.098;24.876;2023-10-19T13:25:45;99498.13;;;20.03;47.45